Alledonia, Ohio
Current Conditions -  °F | °C
As of 7:53 AM on Monday 24 Nov 2014 (Local Time) from KHLG Reporting Station
Overcast Overcast  
Wind Chill: 61°   Ceiling: 7000
Heat Index: 61°   Visibility: 10mi
Dew Point: 51°   Wind: 16mph
Humidity: 70%   Direction: 190°S
Pressure: 29.43"   Gusts: NA
Location:  39.9°N, 80.97°W
Report Text: KHLG 241253Z 19014KT 10SM FEW042 OVC070 16/11 A2943 RMK AO2 SLP965 T01610106
Loading
Personal Weather Stations






























Interactive Weather Map New forecast layout! Learn more

10-Day Weather Forecast

Advertisements
Track Severe Weather on mobile